createdAt,value
2018-11-01T00:00:02.165Z,4.79
2018-11-01T00:01:02.172Z,4.69
2018-11-01T00:02:02.157Z,4.64
2018-11-01T00:03:02.136Z,4.62
2018-11-01T00:04:02.127Z,4.56
2018-11-01T00:05:02.116Z,4.62
2018-11-01T00:06:02.104Z,4.61
2018-11-01T00:07:02.127Z,4.42
2018-11-01T00:08:02.081Z,4.42
2018-11-01T00:09:02.071Z,4.42
2018-11-01T00:10:02.060Z,4.32
2018-11-01T00:11:02.052Z,4.46
2018-11-01T00:12:02.055Z,4.65
2018-11-01T00:13:02.053Z,4.75
2018-11-01T00:14:02.022Z,4.87
2018-11-01T00:15:02.007Z,4.94
2018-11-01T00:16:01.997Z,4.99
2018-11-01T00:17:02.000Z,5.14
2018-11-01T00:18:01.975Z,5.08
2018-11-01T00:19:02.000Z,5.09
2018-11-01T00:20:01.954Z,5.12
2018-11-01T00:21:01.943Z,5.20
2018-11-01T00:22:01.946Z,5.32
2018-11-01T00:23:01.924Z,5.30
2018-11-01T00:24:01.914Z,5.41
2018-11-01T00:25:01.934Z,5.42
2018-11-01T00:26:01.892Z,5.35
2018-11-01T00:27:01.892Z,5.45
2018-11-01T00:28:01.869Z,5.51
2018-11-01T00:29:01.860Z,5.62
2018-11-01T00:30:01.851Z,5.47
2018-11-01T00:31:01.887Z,5.45
2018-11-01T00:32:01.860Z,5.37
2018-11-01T00:33:01.817Z,5.33
2018-11-01T00:34:01.807Z,5.37
2018-11-01T00:35:01.796Z,5.27
2018-11-01T00:36:01.788Z,5.27
2018-11-01T00:37:01.821Z,5.40
2018-11-01T00:38:01.767Z,5.56
2018-11-01T00:39:01.756Z,5.47
2018-11-01T00:40:01.748Z,5.58
2018-11-01T00:41:01.732Z,5.55
2018-11-01T00:42:01.736Z,5.58
2018-11-01T00:43:01.744Z,5.60
2018-11-01T00:44:01.703Z,5.67
2018-11-01T00:45:01.694Z,5.62
2018-11-01T00:46:01.682Z,5.59
2018-11-01T00:47:01.690Z,5.49
2018-11-01T00:48:01.660Z,5.44
2018-11-01T00:49:01.681Z,5.45
2018-11-01T00:50:01.639Z,5.42
2018-11-01T00:51:01.630Z,5.55
2018-11-01T00:52:01.631Z,5.69
2018-11-01T00:53:01.606Z,5.77
2018-11-01T00:54:01.598Z,5.77
2018-11-01T00:55:01.626Z,5.62
2018-11-01T00:56:01.578Z,5.41
2018-11-01T00:57:01.581Z,5.33
2018-11-01T00:58:01.556Z,5.11
2018-11-01T00:59:01.543Z,4.91
2018-11-01T01:00:01.534Z,4.79
2018-11-01T01:01:01.532Z,4.62
2018-11-01T01:02:01.525Z,4.46
2018-11-01T01:03:01.502Z,4.36
2018-11-01T01:04:01.492Z,4.28
2018-11-01T01:05:01.480Z,4.18
2018-11-01T01:06:01.471Z,4.14
2018-11-01T01:07:01.505Z,4.36
2018-11-01T01:08:01.450Z,4.44
2018-11-01T01:09:01.440Z,4.61
2018-11-01T01:10:01.429Z,4.80
2018-11-01T01:11:01.418Z,4.99
2018-11-01T01:12:01.423Z,5.27
2018-11-01T01:13:01.427Z,5.42
2018-11-01T01:14:01.387Z,5.51
2018-11-01T01:15:01.376Z,5.58
2018-11-01T01:16:01.367Z,5.45
2018-11-01T01:17:01.369Z,5.29
2018-11-01T01:18:01.344Z,5.22
2018-11-01T01:19:01.445Z,4.90
2018-11-01T01:20:01.326Z,4.80
2018-11-01T01:21:01.313Z,4.67
2018-11-01T01:22:01.313Z,4.49
2018-11-01T01:23:01.292Z,4.50
2018-11-01T01:24:01.280Z,4.29
2018-11-01T01:25:01.290Z,4.25
2018-11-01T01:26:01.259Z,4.16
2018-11-01T01:27:01.264Z,4.11
2018-11-01T01:28:01.238Z,4.10
2018-11-01T01:29:01.228Z,4.11
2018-11-01T01:30:01.218Z,4.02
2018-11-01T01:31:01.242Z,4.06
2018-11-01T01:32:01.210Z,4.17
2018-11-01T01:33:01.186Z,4.42
2018-11-01T01:34:01.176Z,4.68
2018-11-01T01:35:01.166Z,4.80
2018-11-01T01:36:01.155Z,4.71
2018-11-01T01:37:01.209Z,4.67
2018-11-01T01:38:01.133Z,4.57
2018-11-01T01:39:01.122Z,4.46
2018-11-01T01:40:01.111Z,4.32
2018-11-01T01:41:01.101Z,4.14
2018-11-01T01:42:01.105Z,4.08
2018-11-01T01:43:01.101Z,3.98
2018-11-01T01:44:01.070Z,4.08
2018-11-01T01:45:01.059Z,4.13
2018-11-01T01:46:01.048Z,4.02
2018-11-01T01:47:01.054Z,3.82
2018-11-01T01:48:01.027Z,3.72
2018-11-01T01:49:01.025Z,3.71
2018-11-01T01:50:01.005Z,3.63
2018-11-01T01:51:00.996Z,3.56
2018-11-01T01:52:00.998Z,3.49
2018-11-01T01:53:00.974Z,3.19
2018-11-01T01:54:00.969Z,3.31
2018-11-01T01:55:00.954Z,3.34
2018-11-01T01:56:00.983Z,3.35
2018-11-01T01:57:00.945Z,3.42
2018-11-01T01:58:00.927Z,3.52
2018-11-01T01:59:00.912Z,3.54
2018-11-01T02:00:00.901Z,3.62
2018-11-01T02:01:00.890Z,3.59
2018-11-01T02:02:00.896Z,3.56
2018-11-01T02:03:00.883Z,3.67
2018-11-01T02:04:00.859Z,3.74
2018-11-01T02:05:00.856Z,3.60
2018-11-01T02:06:00.843Z,3.57
2018-11-01T02:07:00.829Z,3.37
2018-11-01T02:08:00.888Z,3.26
2018-11-01T02:09:00.808Z,3.15
2018-11-01T02:10:00.795Z,3.13
2018-11-01T02:11:00.785Z,3.16
2018-11-01T02:12:00.774Z,3.13
2018-11-01T02:13:00.781Z,2.99
2018-11-01T02:14:00.782Z,2.94
2018-11-01T02:15:00.744Z,2.98
2018-11-01T02:16:00.734Z,2.94
2018-11-01T02:17:00.722Z,2.92
2018-11-01T02:18:00.725Z,2.83
2018-11-01T02:19:00.701Z,2.77
2018-11-01T02:20:00.724Z,2.81
2018-11-01T02:21:00.679Z,2.81
2018-11-01T02:22:00.672Z,2.90
2018-11-01T02:23:00.674Z,2.87
2018-11-01T02:24:00.648Z,2.95
2018-11-01T02:25:00.639Z,2.73
2018-11-01T02:26:00.648Z,2.66
2018-11-01T02:27:00.615Z,2.73
2018-11-01T02:28:00.625Z,2.80
2018-11-01T02:29:00.597Z,2.76
2018-11-01T02:30:00.586Z,2.90
2018-11-01T02:31:00.579Z,2.80
2018-11-01T02:32:00.584Z,2.81
2018-11-01T02:33:00.566Z,2.86
2018-11-01T02:34:00.543Z,3.20
2018-11-01T02:35:00.532Z,3.31
2018-11-01T02:36:00.524Z,3.41
2018-11-01T02:37:00.511Z,3.56
2018-11-01T02:38:00.593Z,3.42
2018-11-01T02:39:00.492Z,3.41
2018-11-01T02:40:00.480Z,3.22
2018-11-01T02:41:00.469Z,3.23
2018-11-01T02:42:00.459Z,3.22
2018-11-01T02:43:00.461Z,3.13
2018-11-01T02:44:00.458Z,3.05
2018-11-01T02:45:00.432Z,2.90
2018-11-01T02:46:00.417Z,2.90
2018-11-01T02:47:00.406Z,2.89
2018-11-01T02:48:00.410Z,2.86
2018-11-01T02:49:00.385Z,2.74
2018-11-01T02:50:00.399Z,2.69
2018-11-01T02:51:00.364Z,2.63
2018-11-01T02:52:00.353Z,2.61
2018-11-01T02:53:00.361Z,2.59
2018-11-01T02:54:00.332Z,2.65
2018-11-01T02:55:00.323Z,2.62
2018-11-01T02:56:00.352Z,2.55
2018-11-01T02:57:00.300Z,2.45
2018-11-01T02:58:00.305Z,2.45
2018-11-01T02:59:00.280Z,2.61
2018-11-01T03:00:00.271Z,2.51
2018-11-01T03:01:00.261Z,2.53
2018-11-01T03:02:00.272Z,2.58
2018-11-01T03:03:00.252Z,2.56
2018-11-01T03:04:00.229Z,2.65
2018-11-01T03:05:00.219Z,2.71
2018-11-01T03:06:00.210Z,2.77
2018-11-01T03:07:00.196Z,2.86
2018-11-01T03:08:00.245Z,2.89
2018-11-01T03:09:00.178Z,2.92
2018-11-01T03:10:00.167Z,2.94
2018-11-01T03:11:00.160Z,2.95
2018-11-01T03:12:00.147Z,3.10
2018-11-01T03:13:00.148Z,3.23
2018-11-01T03:14:00.149Z,3.31
2018-11-01T03:15:00.112Z,3.39
2018-11-01T03:16:00.104Z,3.30
2018-11-01T03:17:00.145Z,3.34
2018-11-01T03:18:00.136Z,3.39
2018-11-01T03:19:00.070Z,3.39
2018-11-01T03:20:00.077Z,3.34
2018-11-01T03:21:00.070Z,3.34
2018-11-01T03:22:00.038Z,3.33
2018-11-01T03:23:00.041Z,3.37
2018-11-01T03:24:00.018Z,3.37
2018-11-01T03:25:00.006Z,3.35
2018-11-01T03:26:00.006Z,3.44
2018-11-01T03:26:59.991Z,3.46
2018-11-01T03:27:59.987Z,3.30
2018-11-01T03:28:59.965Z,3.49
2018-11-01T03:29:59.954Z,3.42
2018-11-01T03:30:59.949Z,3.50
2018-11-01T03:31:59.949Z,3.39
2018-11-01T03:32:59.936Z,3.42
2018-11-01T03:33:59.912Z,3.53
2018-11-01T03:34:59.902Z,3.57
2018-11-01T03:35:59.894Z,3.53
2018-11-01T03:36:59.883Z,3.39
2018-11-01T03:37:59.957Z,3.39
2018-11-01T03:38:59.919Z,3.25
2018-11-01T03:39:59.851Z,3.31
2018-11-01T03:40:59.839Z,3.20
2018-11-01T03:41:59.828Z,3.19
2018-11-01T03:42:59.834Z,3.07
2018-11-01T03:43:59.828Z,3.10
2018-11-01T03:44:59.826Z,3.04
2018-11-01T03:45:59.787Z,3.01
2018-11-01T03:46:59.777Z,2.94
2018-11-01T03:47:59.778Z,2.95
2018-11-01T03:48:59.754Z,2.89
2018-11-01T03:49:59.744Z,2.86
2018-11-01T03:50:59.773Z,2.81
2018-11-01T03:51:59.899Z,2.89
2018-11-01T03:52:59.731Z,2.90
2018-11-01T03:53:59.709Z,3.08
2018-11-01T03:54:59.693Z,3.16
2018-11-01T03:55:59.682Z,3.15
2018-11-01T03:56:59.693Z,3.15
2018-11-01T03:57:59.673Z,3.23
2018-11-01T03:58:59.652Z,3.25
2018-11-01T03:59:59.639Z,3.20
2018-11-01T04:00:59.683Z,3.25
2018-11-01T04:01:59.619Z,3.26
2018-11-01T04:02:59.644Z,3.25
2018-11-01T04:03:59.719Z,3.20
2018-11-01T04:04:59.587Z,3.22
2018-11-01T04:05:59.591Z,3.23
2018-11-01T04:06:59.565Z,3.35
2018-11-01T04:07:59.568Z,3.37
2018-11-01T04:08:59.576Z,3.35
2018-11-01T04:09:59.534Z,3.53
2018-11-01T04:10:59.521Z,3.49
2018-11-01T04:11:59.512Z,3.68
2018-11-01T04:12:59.516Z,3.59
2018-11-01T04:13:59.492Z,3.60
2018-11-01T04:14:59.515Z,3.63
2018-11-01T04:15:59.470Z,3.67
2018-11-01T04:16:59.478Z,3.81
2018-11-01T04:17:59.462Z,3.80
2018-11-01T04:18:59.441Z,3.80
2018-11-01T04:19:59.428Z,3.88
2018-11-01T04:20:59.437Z,3.89
2018-11-01T04:21:59.408Z,3.95
2018-11-01T04:22:59.410Z,3.92
2018-11-01T04:23:59.388Z,3.96
2018-11-01T04:24:59.362Z,3.80
2018-11-01T04:25:59.369Z,3.77
2018-11-01T04:26:59.389Z,3.77
2018-11-01T04:27:59.342Z,3.84
2018-11-01T04:28:59.343Z,3.84
2018-11-01T04:29:59.352Z,3.80
2018-11-01T04:30:59.299Z,3.82
2018-11-01T04:31:59.290Z,3.75
2018-11-01T04:32:59.382Z,3.75
2018-11-01T04:33:59.268Z,3.75
2018-11-01T04:34:59.256Z,3.77
2018-11-01T04:35:59.246Z,3.67
2018-11-01T04:36:59.234Z,3.77
2018-11-01T04:37:59.264Z,3.67
2018-11-01T04:38:59.226Z,3.60
2018-11-01T04:39:59.203Z,3.62
2018-11-01T04:40:59.192Z,3.59
2018-11-01T04:41:59.182Z,3.60
2018-11-01T04:42:59.237Z,3.50
2018-11-01T04:43:59.231Z,3.57
2018-11-01T04:44:59.200Z,3.54
2018-11-01T04:45:59.139Z,3.39
2018-11-01T04:46:59.130Z,3.57
2018-11-01T04:47:59.215Z,3.42
2018-11-01T04:48:59.121Z,3.42
2018-11-01T04:49:59.121Z,3.41
2018-11-01T04:50:59.087Z,3.37
2018-11-01T04:51:59.083Z,3.37
2018-11-01T04:52:59.066Z,3.31
2018-11-01T04:53:59.070Z,3.39
2018-11-01T04:54:59.044Z,3.37
2018-11-01T04:55:59.063Z,3.39
2018-11-01T04:56:59.024Z,3.37
2018-11-01T04:57:59.013Z,3.35
2018-11-01T04:58:59.016Z,3.35
2018-11-01T04:59:58.992Z,3.34
2018-11-01T05:00:58.980Z,3.35
2018-11-01T05:01:58.994Z,3.35
2018-11-01T05:02:58.961Z,3.35
2018-11-01T05:03:58.964Z,3.33
2018-11-01T05:04:58.992Z,3.25
2018-11-01T05:05:58.958Z,3.22
2018-11-01T05:06:58.926Z,3.23
2018-11-01T05:07:58.933Z,3.28
2018-11-01T05:08:58.913Z,3.26
2018-11-01T05:09:58.887Z,3.23
2018-11-01T05:10:58.876Z,3.34
2018-11-01T05:11:58.867Z,3.39
2018-11-01T05:12:58.864Z,3.44
2018-11-01T05:13:58.894Z,3.46
2018-11-01T05:14:58.835Z,3.44
2018-11-01T05:15:58.824Z,3.45
2018-11-01T05:16:58.813Z,3.49
2018-11-01T05:17:58.803Z,3.49
2018-11-01T05:18:58.805Z,3.45
2018-11-01T05:19:58.856Z,3.52
2018-11-01T05:20:58.775Z,3.42
2018-11-01T05:21:58.760Z,3.54
2018-11-01T05:22:58.751Z,3.54
2018-11-01T05:23:58.764Z,3.53
2018-11-01T05:24:58.759Z,3.54
2018-11-01T05:25:58.823Z,3.45
2018-11-01T05:26:58.709Z,3.52
2018-11-01T05:27:58.696Z,3.57
2018-11-01T05:28:58.702Z,3.46
2018-11-01T05:29:58.679Z,3.52
2018-11-01T05:30:58.666Z,3.53
2018-11-01T05:31:58.708Z,3.54
2018-11-01T05:32:58.644Z,3.41
2018-11-01T05:33:58.649Z,3.50
2018-11-01T05:34:58.624Z,3.46
2018-11-01T05:35:58.614Z,3.52
2018-11-01T05:36:58.603Z,3.50
2018-11-01T05:37:58.660Z,3.56
2018-11-01T05:38:58.598Z,3.56
2018-11-01T05:39:58.570Z,3.50
2018-11-01T05:40:58.563Z,3.53
2018-11-01T05:41:58.549Z,3.53
2018-11-01T05:42:58.539Z,3.52
2018-11-01T05:43:58.551Z,3.52
2018-11-01T05:44:58.520Z,3.57
2018-11-01T05:45:58.507Z,3.59
2018-11-01T05:46:58.504Z,3.63
2018-11-01T05:47:58.486Z,3.70
2018-11-01T05:48:58.489Z,3.72
2018-11-01T05:49:58.472Z,3.71
2018-11-01T05:50:58.453Z,3.78
2018-11-01T05:51:58.443Z,3.80
2018-11-01T05:52:58.434Z,3.80
2018-11-01T05:53:58.439Z,3.80
2018-11-01T05:54:58.412Z,3.80
2018-11-01T05:55:58.414Z,3.88
2018-11-01T05:56:58.395Z,3.88
2018-11-01T05:57:58.382Z,3.92
2018-11-01T05:58:58.383Z,3.90
2018-11-01T05:59:58.396Z,3.89
2018-11-01T06:00:58.349Z,3.92
2018-11-01T06:01:58.376Z,3.93
2018-11-01T06:02:58.328Z,3.96
2018-11-01T06:03:58.331Z,3.88
2018-11-01T06:04:58.306Z,3.96
2018-11-01T06:05:58.296Z,3.98
2018-11-01T06:07:00.816Z,4.00
2018-11-01T06:07:58.301Z,4.16
2018-11-01T06:08:58.279Z,4.16
2018-11-01T06:09:58.258Z,4.16
2018-11-01T06:10:58.244Z,4.10
2018-11-01T06:11:58.233Z,4.21
2018-11-01T06:12:58.228Z,4.26
2018-11-01T06:13:58.269Z,4.31
2018-11-01T06:14:58.202Z,4.36
2018-11-01T06:15:58.193Z,4.44
2018-11-01T06:16:58.181Z,4.38
2018-11-01T06:17:58.171Z,4.47
2018-11-01T06:18:58.175Z,4.51
2018-11-01T06:19:58.188Z,4.49
2018-11-01T06:20:58.140Z,4.56
2018-11-01T06:21:58.129Z,4.49
2018-11-01T06:22:58.117Z,4.50
2018-11-01T06:23:58.121Z,4.53
2018-11-01T06:24:58.100Z,4.53
2018-11-01T06:25:58.124Z,4.57
2018-11-01T06:26:58.074Z,4.57
2018-11-01T06:27:58.064Z,4.49
2018-11-01T06:28:58.069Z,4.51
2018-11-01T06:29:58.043Z,4.51
2018-11-01T06:30:58.034Z,4.50
2018-11-01T06:31:58.051Z,4.46
2018-11-01T06:32:58.016Z,4.44
2018-11-01T06:33:58.016Z,4.51
2018-11-01T06:34:57.989Z,4.43
2018-11-01T06:35:57.980Z,4.47
2018-11-01T06:36:57.976Z,4.46
2018-11-01T06:37:57.970Z,4.53
2018-11-01T06:38:57.962Z,4.50
2018-11-01T06:39:57.937Z,4.49
2018-11-01T06:40:57.928Z,4.50
2018-11-01T06:41:57.917Z,4.44
2018-11-01T06:42:57.907Z,4.43
2018-11-01T06:43:57.929Z,4.46
2018-11-01T06:44:57.893Z,4.46
2018-11-01T06:45:57.875Z,4.47
2018-11-01T06:46:57.864Z,4.46
2018-11-01T06:47:57.858Z,4.50
2018-11-01T06:48:57.863Z,4.35
2018-11-01T06:49:57.868Z,4.46
2018-11-01T06:50:57.822Z,4.50
2018-11-01T06:51:57.813Z,4.47
2018-11-01T06:52:57.800Z,4.50
2018-11-01T06:53:57.790Z,4.49
2018-11-01T06:54:57.794Z,4.47
2018-11-01T06:55:57.805Z,4.49
2018-11-01T06:56:57.759Z,4.42
2018-11-01T06:57:57.747Z,4.47
2018-11-01T06:58:57.792Z,4.32
2018-11-01T06:59:57.741Z,4.36
2018-11-01T07:00:57.717Z,4.34
2018-11-01T07:01:57.726Z,4.38
2018-11-01T07:02:57.695Z,4.36
2018-11-01T07:03:57.685Z,4.35
2018-11-01T07:04:57.689Z,4.32
2018-11-01T07:05:57.667Z,4.34
2018-11-01T07:06:57.655Z,4.31
2018-11-01T07:07:57.663Z,4.35
2018-11-01T07:08:57.632Z,4.35
2018-11-01T07:09:57.639Z,4.29
2018-11-01T07:10:57.612Z,4.29
2018-11-01T07:11:57.602Z,4.44
2018-11-01T07:12:57.592Z,4.31
2018-11-01T07:13:57.620Z,4.44
2018-11-01T07:14:57.584Z,4.43
2018-11-01T07:15:57.560Z,4.43
2018-11-01T07:16:57.569Z,4.47
2018-11-01T07:17:57.542Z,4.50
2018-11-01T07:18:57.530Z,4.64
2018-11-01T07:19:57.556Z,4.65
2018-11-01T07:20:57.508Z,4.65
2018-11-01T07:21:57.501Z,4.59
2018-11-01T07:22:57.487Z,4.54
2018-11-01T07:23:57.477Z,4.67
2018-11-01T07:24:57.485Z,4.64
2018-11-01T07:25:57.564Z,4.62
2018-11-01T07:26:57.474Z,4.75
2018-11-01T07:27:57.436Z,4.79
2018-11-01T07:28:57.496Z,4.86
2018-11-01T07:29:57.428Z,4.88
2018-11-01T07:30:57.467Z,4.90
2018-11-01T07:31:57.393Z,4.88
2018-11-01T07:32:57.472Z,4.90
2018-11-01T07:33:57.372Z,4.84
2018-11-01T07:34:57.378Z,4.91
2018-11-01T07:35:57.351Z,4.96
2018-11-01T07:36:57.340Z,5.04
2018-11-01T07:37:57.330Z,4.97
2018-11-01T07:38:57.356Z,5.05
2018-11-01T07:39:57.375Z,5.14
2018-11-01T07:40:57.301Z,5.11
2018-11-01T07:41:57.289Z,5.11
2018-11-01T07:42:57.276Z,5.19
2018-11-01T07:43:57.312Z,5.12
2018-11-01T07:44:57.291Z,5.26
2018-11-01T07:45:57.245Z,5.19
2018-11-01T07:46:57.235Z,5.35
2018-11-01T07:47:57.225Z,5.30
2018-11-01T07:48:57.216Z,5.35
2018-11-01T07:49:57.216Z,5.38
2018-11-01T07:50:57.216Z,5.40
2018-11-01T07:51:57.181Z,5.38
2018-11-01T07:52:57.310Z,5.44
2018-11-01T07:53:57.161Z,5.51
2018-11-01T07:54:57.165Z,5.52
2018-11-01T07:55:57.142Z,5.49
2018-11-01T07:56:57.158Z,5.58
2018-11-01T07:57:57.145Z,5.59
2018-11-01T07:58:57.106Z,5.59
2018-11-01T07:59:57.113Z,5.62
2018-11-01T08:00:57.123Z,5.65
2018-11-01T08:01:57.074Z,5.59
2018-11-01T08:02:57.064Z,5.69
2018-11-01T08:03:57.072Z,5.81
2018-11-01T08:04:57.131Z,5.75
2018-11-01T08:05:57.166Z,5.74
2018-11-01T08:06:57.022Z,5.74
2018-11-01T08:07:57.012Z,5.81
2018-11-01T08:08:57.001Z,5.70
2018-11-01T08:09:57.004Z,5.78
2018-11-01T08:10:56.980Z,5.80
2018-11-01T08:11:57.003Z,5.80
2018-11-01T08:12:56.959Z,5.81
2018-11-01T08:13:56.946Z,5.77
2018-11-01T08:14:56.957Z,5.84
2018-11-01T08:15:56.925Z,5.83
2018-11-01T08:16:56.925Z,5.93
2018-11-01T08:17:56.941Z,5.99
2018-11-01T08:18:56.897Z,6.05
2018-11-01T08:19:57.070Z,6.13
2018-11-01T08:20:57.095Z,6.11
2018-11-01T08:21:56.862Z,6.19
2018-11-01T08:22:56.855Z,6.19
2018-11-01T08:23:56.863Z,6.20
2018-11-01T08:24:56.843Z,6.21
2018-11-01T08:25:56.820Z,6.25
2018-11-01T08:26:56.808Z,6.24
2018-11-01T08:27:56.860Z,6.14
2018-11-01T08:28:56.788Z,6.24
2018-11-01T08:29:56.820Z,6.28
2018-11-01T08:30:56.765Z,6.21
2018-11-01T08:31:56.755Z,6.25
2018-11-01T08:32:56.744Z,6.24
2018-11-01T08:33:56.735Z,6.35
2018-11-01T08:34:56.735Z,6.30
2018-11-01T08:35:56.733Z,6.28
2018-11-01T08:36:56.704Z,6.33
2018-11-01T08:37:56.692Z,6.32
2018-11-01T08:38:56.680Z,6.35
2018-11-01T08:39:56.683Z,6.36
2018-11-01T08:40:56.719Z,6.38
2018-11-01T08:41:56.662Z,6.39
2018-11-01T08:42:56.651Z,6.35
2018-11-01T08:43:56.664Z,6.32
2018-11-01T08:44:56.632Z,6.35
2018-11-01T08:45:56.611Z,6.54
2018-11-01T08:46:56.613Z,6.48
2018-11-01T08:47:56.585Z,6.51
2018-11-01T08:48:56.574Z,6.61
2018-11-01T08:49:56.619Z,6.58
2018-11-01T08:50:56.557Z,6.60
2018-11-01T08:51:56.654Z,6.64
2018-11-01T08:52:56.532Z,6.64
2018-11-01T08:53:56.523Z,6.81
2018-11-01T08:54:56.523Z,6.83
2018-11-01T08:55:56.545Z,6.79
2018-11-01T08:56:56.490Z,6.91
2018-11-01T08:57:56.479Z,6.93
2018-11-01T08:58:56.467Z,6.91
2018-11-01T08:59:56.495Z,6.90
2018-11-01T09:00:56.446Z,6.99
2018-11-01T09:01:56.444Z,6.99
2018-11-01T09:02:56.431Z,7.05
2018-11-01T09:03:56.425Z,6.97
2018-11-01T09:04:56.423Z,6.97
2018-11-01T09:05:56.394Z,6.96
2018-11-01T09:06:56.383Z,6.97
2018-11-01T09:07:56.416Z,7.04
2018-11-01T09:08:56.362Z,7.12
2018-11-01T09:09:56.365Z,7.21
2018-11-01T09:10:56.341Z,7.21
2018-11-01T09:11:56.330Z,7.27
2018-11-01T09:12:56.511Z,7.37
2018-11-01T09:13:56.309Z,7.39
2018-11-01T09:14:56.314Z,7.54
2018-11-01T09:15:56.287Z,7.47
2018-11-01T09:16:56.276Z,7.60
2018-11-01T09:17:56.265Z,7.74
2018-11-01T09:18:56.279Z,7.71
2018-11-01T09:19:56.259Z,7.77
2018-11-01T09:20:56.234Z,7.69
2018-11-01T09:21:56.222Z,7.71
2018-11-01T09:22:56.214Z,7.69
2018-11-01T09:23:56.201Z,7.73
2018-11-01T09:24:56.247Z,7.74
2018-11-01T09:25:56.179Z,7.91
2018-11-01T09:26:56.360Z,7.91
2018-11-01T09:27:56.158Z,7.95
2018-11-01T09:28:56.148Z,7.79
2018-11-01T09:29:56.139Z,7.94
2018-11-01T09:30:56.160Z,7.95
2018-11-01T09:31:56.116Z,8.12
2018-11-01T09:32:56.147Z,8.13
2018-11-01T09:33:56.094Z,8.21
2018-11-01T09:34:56.087Z,8.32
2018-11-01T09:35:56.089Z,8.36
2018-11-01T09:36:56.083Z,8.37
2018-11-01T09:37:56.051Z,8.46
2018-11-01T09:38:56.040Z,8.49
2018-11-01T09:39:56.032Z,8.68
2018-11-01T09:40:56.033Z,8.89
2018-11-01T09:41:56.009Z,9.59
2018-11-01T09:42:56.001Z,10.51
2018-11-01T09:43:56.084Z,11.33
2018-11-01T09:44:55.986Z,11.57
2018-11-01T09:45:56.084Z,12.11
2018-11-01T09:46:56.292Z,12.21
2018-11-01T09:47:55.946Z,12.12
2018-11-01T09:48:55.936Z,12.07
2018-11-01T09:49:55.970Z,12.15
2018-11-01T09:50:55.925Z,12.31
2018-11-01T09:51:55.904Z,12.33
2018-11-01T09:52:55.898Z,12.66
2018-11-01T09:53:55.884Z,12.77
2018-11-01T09:54:55.876Z,13.69
2018-11-01T09:55:56.013Z,14.38
2018-11-01T09:56:55.850Z,14.41
2018-11-01T09:57:55.888Z,14.49
2018-11-01T09:58:55.844Z,14.26
2018-11-01T09:59:55.844Z,13.61
2018-11-01T10:00:55.905Z,13.28
2018-11-01T10:01:55.799Z,13.90
2018-11-01T10:02:55.810Z,13.90
2018-11-01T10:03:55.787Z,13.17
2018-11-01T10:04:55.777Z,13.07
2018-11-01T10:05:55.771Z,13.71
2018-11-01T10:06:55.828Z,14.24
2018-11-01T10:07:55.747Z,14.49
2018-11-01T10:08:55.723Z,14.06
2018-11-01T10:09:55.708Z,13.39
2018-11-01T10:10:55.737Z,12.96
2018-11-01T10:11:55.704Z,12.55
2018-11-01T10:12:55.698Z,12.38
2018-11-01T10:13:55.684Z,12.25
2018-11-01T10:14:55.671Z,12.13
2018-11-01T10:15:55.779Z,12.18
2018-11-01T10:16:55.817Z,12.13
2018-11-01T10:17:56.060Z,12.01
2018-11-01T10:18:55.639Z,12.04
2018-11-01T10:19:55.600Z,12.07
2018-11-01T10:20:55.603Z,12.19
2018-11-01T10:21:55.746Z,12.49
2018-11-01T10:22:55.572Z,12.51
2018-11-01T10:23:55.558Z,12.69
2018-11-01T10:24:55.550Z,12.71
2018-11-01T10:25:55.551Z,12.61
2018-11-01T10:26:55.526Z,12.61
2018-11-01T10:27:55.518Z,12.52
2018-11-01T10:28:55.504Z,12.58
2018-11-01T10:29:55.494Z,12.51
2018-11-01T10:30:55.497Z,12.38
2018-11-01T10:31:55.477Z,12.73
2018-11-01T10:32:55.495Z,13.27
2018-11-01T10:33:55.555Z,13.14
2018-11-01T10:34:55.440Z,13.46
2018-11-01T10:35:55.444Z,13.63
2018-11-01T10:36:55.423Z,13.59
2018-11-01T10:37:55.410Z,14.21
2018-11-01T10:38:55.421Z,13.93
2018-11-01T10:39:55.388Z,13.71
2018-11-01T10:40:55.504Z,13.50
2018-11-01T10:41:55.365Z,13.14
2018-11-01T10:42:55.353Z,13.09
2018-11-01T10:43:55.341Z,12.99
2018-11-01T10:44:55.357Z,12.91
2018-11-01T10:45:55.334Z,12.95
2018-11-01T10:46:55.310Z,12.99
2018-11-01T10:47:55.300Z,12.89
2018-11-01T10:48:55.290Z,12.76
2018-11-01T10:49:55.281Z,12.58
2018-11-01T10:50:55.309Z,12.56
2018-11-01T10:51:55.285Z,12.40
2018-11-01T10:52:55.325Z,12.29
2018-11-01T10:53:55.445Z,12.37
2018-11-01T10:54:55.224Z,12.26
2018-11-01T10:55:55.234Z,12.38
2018-11-01T10:56:55.231Z,12.73
2018-11-01T10:57:55.192Z,13.43
2018-11-01T10:58:55.182Z,13.61
2018-11-01T10:59:55.244Z,13.71
2018-11-01T11:00:55.243Z,13.43
2018-11-01T11:01:55.159Z,14.02
2018-11-01T11:02:55.144Z,15.15
2018-11-01T11:03:55.138Z,15.58
2018-11-01T11:04:55.117Z,16.30
2018-11-01T11:05:55.127Z,17.03
2018-11-01T11:06:55.147Z,17.14
2018-11-01T11:07:55.099Z,16.80
2018-11-01T11:08:55.125Z,16.78
2018-11-01T11:09:55.062Z,16.80
2018-11-01T11:10:55.077Z,17.32
2018-11-01T11:11:55.041Z,17.35
2018-11-01T11:12:55.034Z,17.58
2018-11-01T11:13:55.024Z,17.89
2018-11-01T11:14:55.081Z,18.21
2018-11-01T11:15:55.020Z,18.29
2018-11-01T11:16:54.993Z,17.92
2018-11-01T11:17:54.984Z,17.98
2018-11-01T11:18:54.983Z,18.21
2018-11-01T11:19:55.038Z,18.25
2018-11-01T11:20:55.215Z,17.80
2018-11-01T11:21:54.945Z,16.95
2018-11-01T11:22:54.921Z,15.84
2018-11-01T11:23:54.914Z,15.78
2018-11-01T11:24:54.929Z,15.96
2018-11-01T11:25:54.902Z,16.01
2018-11-01T11:26:54.880Z,16.52
2018-11-01T11:27:54.870Z,17.14
2018-11-01T11:28:54.858Z,17.28
2018-11-01T11:29:54.944Z,17.35
2018-11-01T11:30:54.861Z,17.32
2018-11-01T11:31:54.835Z,17.24
2018-11-01T11:32:54.904Z,16.55
2018-11-01T11:33:54.803Z,16.32
2018-11-01T11:34:54.791Z,16.82
2018-11-01T11:35:54.963Z,17.28
2018-11-01T11:36:54.771Z,16.59
2018-11-01T11:37:54.760Z,16.37
2018-11-01T11:38:54.831Z,16.11
2018-11-01T11:39:54.753Z,15.70
2018-11-01T11:40:54.742Z,15.91
2018-11-01T11:41:54.719Z,15.92
2018-11-01T11:42:54.716Z,15.96
2018-11-01T11:43:54.696Z,16.18
2018-11-01T11:44:54.706Z,16.34
2018-11-01T11:45:54.688Z,16.55
2018-11-01T11:46:54.668Z,16.62
2018-11-01T11:47:54.653Z,16.73
2018-11-01T11:48:54.647Z,16.54
2018-11-01T11:49:54.633Z,16.44
2018-11-01T11:50:54.646Z,16.41
2018-11-01T11:51:54.610Z,16.32
2018-11-01T11:52:54.600Z,15.98
2018-11-01T11:53:54.591Z,16.01
2018-11-01T11:54:54.578Z,15.41
2018-11-01T11:55:54.584Z,15.28
2018-11-01T11:56:54.660Z,15.15
2018-11-01T11:57:54.546Z,15.22
2018-11-01T11:58:54.535Z,15.07
2018-11-01T11:59:54.524Z,14.75
2018-11-01T12:00:54.526Z,14.54
2018-11-01T12:01:54.503Z,14.52
2018-11-01T12:02:54.516Z,14.53
2018-11-01T12:03:54.483Z,14.59
2018-11-01T12:04:54.474Z,14.67
2018-11-01T12:05:54.544Z,14.66
2018-11-01T12:06:54.453Z,14.56
2018-11-01T12:07:54.441Z,14.67
2018-11-01T12:08:54.434Z,14.63
2018-11-01T12:09:54.418Z,14.49
2018-11-01T12:10:54.425Z,14.59
2018-11-01T12:11:54.397Z,14.56
2018-11-01T12:12:54.387Z,14.48
2018-11-01T12:13:54.381Z,14.48
2018-11-01T12:14:54.383Z,14.46
2018-11-01T12:15:54.375Z,14.52
2018-11-01T12:16:54.357Z,14.59
2018-11-01T12:17:54.334Z,14.64
2018-11-01T12:18:54.326Z,14.71
2018-11-01T12:19:54.313Z,14.71
2018-11-01T12:20:54.307Z,14.87
2018-11-01T12:21:54.324Z,14.90
2018-11-01T12:22:54.290Z,15.05
2018-11-01T12:23:54.315Z,15.01
2018-11-01T12:24:54.281Z,15.00
2018-11-01T12:25:54.255Z,14.91
2018-11-01T12:26:54.264Z,14.82
2018-11-01T12:27:54.240Z,14.79
2018-11-01T12:28:54.377Z,14.83
2018-11-01T12:29:54.228Z,14.83
2018-11-01T12:30:54.209Z,14.85
2018-11-01T12:31:54.210Z,14.82
2018-11-01T12:32:54.194Z,14.63
2018-11-01T12:33:54.162Z,14.52
2018-11-01T12:34:54.157Z,14.20
2018-11-01T12:35:54.175Z,14.08
2018-11-01T12:36:54.164Z,13.93
2018-11-01T12:37:54.123Z,13.98
2018-11-01T12:38:54.109Z,14.21
2018-11-01T12:39:54.113Z,14.29
2018-11-01T12:40:54.087Z,14.26
2018-11-01T12:41:54.091Z,14.27
2018-11-01T12:42:54.065Z,14.23
2018-11-01T12:43:54.068Z,14.24
2018-11-01T12:44:54.056Z,14.38
2018-11-01T12:45:54.136Z,14.46
2018-11-01T12:46:54.061Z,14.46
2018-11-01T12:47:54.016Z,14.53
2018-11-01T12:48:53.999Z,14.67
2018-11-01T12:49:54.047Z,14.72
2018-11-01T12:50:54.008Z,14.75
2018-11-01T12:51:53.980Z,14.67
2018-11-01T12:52:53.963Z,14.54
2018-11-01T12:53:53.949Z,14.56
2018-11-01T12:54:53.935Z,14.67
2018-11-01T12:55:53.933Z,14.78
2018-11-01T12:56:53.938Z,14.80
2018-11-01T12:57:53.903Z,14.94
2018-11-01T12:58:53.893Z,14.98
2018-11-01T12:59:53.888Z,15.09
2018-11-01T13:00:53.887Z,15.01
2018-11-01T13:01:53.883Z,14.91
2018-11-01T13:02:53.884Z,14.93
2018-11-01T13:03:53.848Z,14.79
2018-11-01T13:04:53.848Z,14.72
2018-11-01T13:05:53.879Z,14.53
2018-11-01T13:06:53.856Z,14.45
2018-11-01T13:07:53.858Z,14.24
2018-11-01T13:08:53.822Z,14.02
2018-11-01T13:09:53.791Z,14.11
2018-11-01T13:10:53.818Z,14.01